createdAt,value
2018-06-06T00:00:22.437Z,33.33
2018-06-06T00:02:49.865Z,35.40
2018-06-06T00:05:17.482Z,32.80
2018-06-06T00:07:44.819Z,37.63
2018-06-06T00:10:12.151Z,32.90
2018-06-06T00:12:39.694Z,33.40
2018-06-06T00:15:07.095Z,31.07
2018-06-06T00:17:34.470Z,32.07
2018-06-06T00:20:01.809Z,34.27
2018-06-06T00:22:29.716Z,32.87
2018-06-06T00:24:57.368Z,37.27
2018-06-06T00:27:24.756Z,31.80
2018-06-06T00:29:52.476Z,34.47
2018-06-06T00:32:19.838Z,37.83
2018-06-06T00:34:47.152Z,36.07
2018-06-06T00:37:14.471Z,35.33
2018-06-06T00:39:41.908Z,34.00
2018-06-06T00:42:09.492Z,32.23
2018-06-06T00:44:36.856Z,36.03
2018-06-06T00:47:04.198Z,37.13
2018-06-06T00:49:31.543Z,37.07
2018-06-06T00:52:00.052Z,36.60
2018-06-06T00:54:27.412Z,33.70
2018-06-06T00:56:54.934Z,34.13
2018-06-06T00:59:22.214Z,33.43
2018-06-06T01:01:49.728Z,36.67
2018-06-06T01:04:17.078Z,35.47
2018-06-06T01:06:44.381Z,35.90
2018-06-06T01:09:11.731Z,36.90
2018-06-06T01:11:39.502Z,37.33
2018-06-06T01:14:06.948Z,38.60
2018-06-06T01:16:34.248Z,36.63
2018-06-06T01:19:01.771Z,35.90
2018-06-06T01:21:29.123Z,33.50
2018-06-06T01:23:56.864Z,34.17
2018-06-06T01:26:24.304Z,38.63
2018-06-06T01:28:51.666Z,37.73
2018-06-06T01:31:19.086Z,41.73
2018-06-06T01:33:46.430Z,37.17
2018-06-06T01:36:13.978Z,36.00
2018-06-06T01:38:41.514Z,34.57
2018-06-06T01:41:08.822Z,34.10
2018-06-06T01:43:36.355Z,36.70
2018-06-06T01:46:03.726Z,34.63
2018-06-06T01:48:31.074Z,33.27
2018-06-06T01:50:58.605Z,36.63
2018-06-06T01:53:25.984Z,32.60
2018-06-06T01:55:53.290Z,36.57
2018-06-06T01:58:20.647Z,30.33
2018-06-06T02:00:48.180Z,34.83
2018-06-06T02:03:15.471Z,34.80
2018-06-06T02:05:43.225Z,40.87
2018-06-06T02:08:10.575Z,33.47
2018-06-06T02:10:37.858Z,38.30
2018-06-06T02:13:05.246Z,36.60
2018-06-06T02:15:32.807Z,42.60
2018-06-06T02:18:00.359Z,38.37
2018-06-06T02:20:27.753Z,37.30
2018-06-06T02:22:55.105Z,39.23
2018-06-06T02:25:22.646Z,41.90
2018-06-06T02:27:50.021Z,46.87
2018-06-06T02:30:17.695Z,44.73
2018-06-06T02:32:45.202Z,43.50
2018-06-06T02:35:12.632Z,46.27
2018-06-06T02:37:40.144Z,45.17
2018-06-06T02:40:07.486Z,45.03
2018-06-06T02:42:34.799Z,49.97
2018-06-06T02:45:02.379Z,50.47
2018-06-06T02:47:29.767Z,56.23
2018-06-06T02:49:57.089Z,53.37
2018-06-06T02:52:24.384Z,52.70
2018-06-06T02:54:51.919Z,60.13
2018-06-06T02:57:19.196Z,62.73
2018-06-06T02:59:46.482Z,54.83
2018-06-06T03:02:13.991Z,54.70
2018-06-06T03:04:41.342Z,60.07
2018-06-06T03:07:08.875Z,58.70
2018-06-06T03:09:36.370Z,60.23
2018-06-06T03:12:03.871Z,67.70
2018-06-06T03:14:31.591Z,59.23
2018-06-06T03:16:59.098Z,65.20
2018-06-06T03:19:26.377Z,56.07
2018-06-06T03:21:53.799Z,63.10
2018-06-06T03:24:21.174Z,55.47
2018-06-06T03:26:48.439Z,53.63
2018-06-06T03:29:15.756Z,51.60
2018-06-06T03:31:43.136Z,53.20
2018-06-06T03:34:10.663Z,51.77
2018-06-06T03:36:37.994Z,54.33
2018-06-06T03:39:06.767Z,44.57
2018-06-06T03:41:34.401Z,55.30
2018-06-06T03:44:02.055Z,52.63
2018-06-06T03:46:30.013Z,51.23
2018-06-06T03:48:57.332Z,50.03
2018-06-06T03:51:24.657Z,52.37
2018-06-06T03:53:51.995Z,52.83
2018-06-06T03:56:19.502Z,53.83
2018-06-06T03:58:47.032Z,53.93
2018-06-06T04:01:14.518Z,48.97
2018-06-06T04:03:42.133Z,48.07
2018-06-06T04:06:09.439Z,46.40
2018-06-06T04:08:36.958Z,48.67
2018-06-06T04:11:04.477Z,46.00
2018-06-06T04:13:31.991Z,47.73
2018-06-06T04:15:59.563Z,52.17
2018-06-06T04:18:27.383Z,48.30
2018-06-06T04:20:54.866Z,52.00
2018-06-06T04:23:22.230Z,55.60
2018-06-06T04:25:49.526Z,50.27
2018-06-06T04:28:17.082Z,48.90
2018-06-06T04:30:44.707Z,49.50
2018-06-06T04:33:12.273Z,54.77
2018-06-06T04:35:39.897Z,57.10
2018-06-06T04:38:07.847Z,63.60
2018-06-06T04:40:35.522Z,62.20
2018-06-06T04:43:03.045Z,63.40
2018-06-06T04:45:30.550Z,62.90
2018-06-06T04:47:58.103Z,71.17
2018-06-06T04:50:25.562Z,67.17
2018-06-06T04:52:53.199Z,72.50
2018-06-06T04:55:20.670Z,60.97
2018-06-06T04:57:48.171Z,76.40
2018-06-06T05:00:15.944Z,69.13
2018-06-06T05:02:43.463Z,68.63
2018-06-06T05:05:11.024Z,69.50
2018-06-06T05:07:39.234Z,67.80
2018-06-06T05:10:06.600Z,70.77
2018-06-06T05:12:33.996Z,77.03
2018-06-06T05:15:01.337Z,73.27
2018-06-06T05:17:29.082Z,66.70
2018-06-06T05:19:56.449Z,64.67
2018-06-06T05:22:23.845Z,69.43
2018-06-06T05:24:51.912Z,71.30
2018-06-06T05:27:19.351Z,70.33
2018-06-06T05:29:46.747Z,64.47
2018-06-06T05:32:14.076Z,59.30
2018-06-06T05:34:41.392Z,60.63
2018-06-06T05:37:08.742Z,55.70
2018-06-06T05:39:36.729Z,62.73
2018-06-06T05:42:04.094Z,58.43
2018-06-06T05:44:31.402Z,58.10
2018-06-06T05:46:58.783Z,54.27
2018-06-06T05:49:27.367Z,57.97
2018-06-06T05:51:54.691Z,55.50
2018-06-06T05:54:22.011Z,55.57
2018-06-06T05:56:49.324Z,51.17
2018-06-06T05:59:16.651Z,54.60
2018-06-06T06:01:43.970Z,51.37
2018-06-06T06:04:11.327Z,46.37
2018-06-06T06:06:38.777Z,44.23
2018-06-06T06:09:06.379Z,44.43
2018-06-06T06:11:33.925Z,46.60
2018-06-06T06:14:01.566Z,42.17
2018-06-06T06:16:28.924Z,46.40
2018-06-06T06:18:56.283Z,41.07
2018-06-06T06:21:23.867Z,47.20
2018-06-06T06:23:51.224Z,58.23
2018-06-06T06:26:18.750Z,44.73
2018-06-06T06:28:46.111Z,42.80
2018-06-06T06:31:13.471Z,37.40
2018-06-06T06:33:40.912Z,41.73
2018-06-06T06:36:08.283Z,36.50
2018-06-06T06:38:35.674Z,36.37
2018-06-06T06:41:02.989Z,45.20
2018-06-06T06:43:30.846Z,36.50
2018-06-06T06:45:58.225Z,36.37
2018-06-06T06:48:25.650Z,34.87
2018-06-06T06:50:52.978Z,36.00
2018-06-06T06:53:20.496Z,36.03
2018-06-06T06:55:47.831Z,35.00
2018-06-06T06:58:15.254Z,35.00
2018-06-06T07:00:42.625Z,34.90
2018-06-06T07:03:10.259Z,33.80
2018-06-06T07:05:37.858Z,36.33
2018-06-06T07:08:05.326Z,34.23
2018-06-06T07:10:32.778Z,31.00
2018-06-06T07:13:00.635Z,30.87
2018-06-06T07:15:27.960Z,29.47
2018-06-06T07:17:55.306Z,30.90
2018-06-06T07:20:22.725Z,26.10
2018-06-06T07:22:50.033Z,28.93
2018-06-06T07:25:17.371Z,29.97
2018-06-06T07:27:44.651Z,28.50
2018-06-06T07:30:11.954Z,28.27
2018-06-06T07:32:39.460Z,25.87
2018-06-06T07:35:06.865Z,21.97
2018-06-06T07:37:34.178Z,24.77
2018-06-06T07:40:01.547Z,23.60
2018-06-06T07:42:28.862Z,20.83
2018-06-06T07:44:56.595Z,19.17
2018-06-06T07:47:23.959Z,19.97
2018-06-06T07:49:51.290Z,20.10
2018-06-06T07:52:18.851Z,26.77
2018-06-06T07:54:46.303Z,18.83
2018-06-06T07:57:13.684Z,19.57
2018-06-06T07:59:41.246Z,18.73
2018-06-06T08:02:10.745Z,18.97
2018-06-06T08:04:38.421Z,23.13
2018-06-06T08:07:05.990Z,18.93
2018-06-06T08:09:33.474Z,18.40
2018-06-06T08:12:00.974Z,18.43
2018-06-06T08:14:28.483Z,18.30
2018-06-06T08:16:59.898Z,17.83
2018-06-06T08:19:27.415Z,17.30
2018-06-06T08:21:54.959Z,18.57
2018-06-06T08:24:22.491Z,18.33
2018-06-06T08:26:50.004Z,17.73
2018-06-06T08:29:25.343Z,19.83
2018-06-06T08:31:52.713Z,19.60
2018-06-06T08:34:20.041Z,18.83
2018-06-06T08:36:47.380Z,16.20
2018-06-06T08:39:14.712Z,18.83
2018-06-06T08:41:42.007Z,19.33
2018-06-06T08:44:10.818Z,17.90
2018-06-06T08:46:38.168Z,18.70
2018-06-06T08:49:05.494Z,19.73
2018-06-06T08:51:33.011Z,19.30
2018-06-06T08:54:00.362Z,19.13
2018-06-06T08:56:27.734Z,19.97
2018-06-06T08:58:55.250Z,20.33
2018-06-06T09:01:24.474Z,17.70
2018-06-06T09:03:52.038Z,19.97
2018-06-06T09:06:19.575Z,18.13
2018-06-06T09:08:47.084Z,22.23
2018-06-06T09:11:14.721Z,19.93
2018-06-06T09:13:46.801Z,17.47
2018-06-06T09:16:14.189Z,19.80
2018-06-06T09:18:41.510Z,19.03
2018-06-06T09:21:08.846Z,16.60
2018-06-06T09:23:36.157Z,18.80
2018-06-06T09:26:03.601Z,18.67
2018-06-06T09:28:36.024Z,17.60
2018-06-06T09:31:03.366Z,17.43
2018-06-06T09:33:30.729Z,16.77
2018-06-06T09:35:58.040Z,17.40
2018-06-06T09:38:25.350Z,18.33
2018-06-06T09:40:52.694Z,15.10
2018-06-06T09:43:24.573Z,15.40
2018-06-06T09:45:52.133Z,16.93
2018-06-06T09:48:19.736Z,16.13
2018-06-06T09:50:47.235Z,15.60
2018-06-06T09:53:14.876Z,14.07
2018-06-06T09:55:42.417Z,14.00
2018-06-06T09:58:12.182Z,14.50
2018-06-06T10:00:45.452Z,14.67
2018-06-06T10:03:13.134Z,16.00
2018-06-06T10:05:40.819Z,17.33
2018-06-06T10:08:08.249Z,15.47
2018-06-06T10:10:38.611Z,15.00
2018-06-06T10:13:06.152Z,14.03
2018-06-06T10:15:33.677Z,14.03
2018-06-06T10:18:01.208Z,15.00
2018-06-06T10:20:28.610Z,18.60
2018-06-06T10:23:01.799Z,17.10
2018-06-06T10:25:29.097Z,13.60
2018-06-06T10:27:56.403Z,13.17
2018-06-06T10:30:23.720Z,12.47
2018-06-06T10:32:51.062Z,12.20
2018-06-06T10:35:18.362Z,12.50
2018-06-06T10:37:49.341Z,12.70
2018-06-06T10:40:16.883Z,14.20
2018-06-06T10:42:44.410Z,13.33
2018-06-06T10:45:11.967Z,13.10
2018-06-06T10:47:39.508Z,14.63
2018-06-06T10:50:07.031Z,12.10
2018-06-06T10:52:38.043Z,14.50
2018-06-06T10:55:05.615Z,10.67
2018-06-06T10:57:33.143Z,13.57
2018-06-06T11:00:00.680Z,11.67
2018-06-06T11:02:28.187Z,10.57
2018-06-06T11:04:55.530Z,12.03
2018-06-06T11:07:28.475Z,12.70
2018-06-06T11:09:55.758Z,11.90
2018-06-06T11:12:23.106Z,12.10
2018-06-06T11:14:50.474Z,10.73
2018-06-06T11:17:17.821Z,18.93
2018-06-06T11:19:45.135Z,12.30
2018-06-06T11:22:17.103Z,11.40
2018-06-06T11:24:44.411Z,12.30
2018-06-06T11:27:11.763Z,11.10
2018-06-06T11:29:39.133Z,10.80
2018-06-06T11:32:06.595Z,12.57
2018-06-06T11:34:34.132Z,9.97
2018-06-06T11:37:01.527Z,10.33
2018-06-06T11:39:33.202Z,15.50
2018-06-06T11:42:00.541Z,12.37
2018-06-06T11:44:27.944Z,10.97
2018-06-06T11:46:55.268Z,11.20
2018-06-06T11:49:22.607Z,10.97
2018-06-06T11:51:49.957Z,13.37
2018-06-06T11:54:19.898Z,10.47
2018-06-06T11:56:47.190Z,10.93
2018-06-06T11:59:14.506Z,12.13
2018-06-06T12:01:41.844Z,9.17
2018-06-06T12:04:09.319Z,10.40
2018-06-06T12:06:36.657Z,10.03
2018-06-06T12:09:08.117Z,12.37
2018-06-06T12:11:35.543Z,10.00
2018-06-06T12:14:02.846Z,9.67
2018-06-06T12:16:30.297Z,8.97
2018-06-06T12:18:57.655Z,9.67
2018-06-06T12:21:29.059Z,11.87
2018-06-06T12:23:56.641Z,10.23
2018-06-06T12:26:24.186Z,9.77
2018-06-06T12:28:51.712Z,10.20
2018-06-06T12:31:19.217Z,10.20
2018-06-06T12:33:51.834Z,9.87
2018-06-06T12:36:19.130Z,9.40
2018-06-06T12:38:46.502Z,11.07
2018-06-06T12:41:13.787Z,10.70
2018-06-06T12:43:41.166Z,10.90
2018-06-06T12:46:08.507Z,10.50
2018-06-06T12:48:39.692Z,11.03
2018-06-06T12:51:07.059Z,10.67
2018-06-06T12:53:34.407Z,11.83
2018-06-06T12:56:01.745Z,12.63
2018-06-06T12:58:29.063Z,10.73
2018-06-06T13:00:56.390Z,11.17
2018-06-06T13:03:29.566Z,11.07
2018-06-06T13:05:56.908Z,10.27
2018-06-06T13:08:24.231Z,11.23
2018-06-06T13:10:51.565Z,11.60
2018-06-06T13:13:18.857Z,10.77
2018-06-06T13:15:46.171Z,11.47
2018-06-06T13:18:13.531Z,11.67
2018-06-06T13:20:40.943Z,10.90
2018-06-06T13:23:08.239Z,11.27
2018-06-06T13:25:35.603Z,11.23
2018-06-06T13:28:02.970Z,11.00
2018-06-06T13:30:30.344Z,10.50
2018-06-06T13:32:57.699Z,9.33
2018-06-06T13:35:25.056Z,10.63
2018-06-06T13:37:52.512Z,11.27
2018-06-06T13:40:19.927Z,10.50
2018-06-06T13:42:47.240Z,9.77
2018-06-06T13:45:14.656Z,10.50
2018-06-06T13:47:42.037Z,10.70
2018-06-06T13:50:09.369Z,10.40
2018-06-06T13:52:36.705Z,10.27
2018-06-06T13:55:04.191Z,10.60
2018-06-06T13:57:31.510Z,12.93
2018-06-06T13:59:58.911Z,11.77
2018-06-06T14:02:26.242Z,9.90
2018-06-06T14:04:53.614Z,9.53
2018-06-06T14:07:21.072Z,9.47
2018-06-06T14:09:48.438Z,9.50
2018-06-06T14:12:15.780Z,8.90
2018-06-06T14:14:43.158Z,9.10
2018-06-06T14:17:10.523Z,9.80
2018-06-06T14:19:37.894Z,8.60
2018-06-06T14:22:05.255Z,8.23
2018-06-06T14:24:32.593Z,10.30
2018-06-06T14:26:59.989Z,9.77
2018-06-06T14:29:27.313Z,9.80
2018-06-06T14:31:54.617Z,10.17
2018-06-06T14:34:22.062Z,10.00
2018-06-06T14:36:49.365Z,11.57
2018-06-06T14:39:16.720Z,9.67
2018-06-06T14:41:44.059Z,10.13
2018-06-06T14:44:11.483Z,9.40
2018-06-06T14:46:38.951Z,12.10
2018-06-06T14:49:06.280Z,10.80
2018-06-06T14:51:33.596Z,9.50
2018-06-06T14:54:00.880Z,9.50
2018-06-06T14:56:28.328Z,9.23
2018-06-06T14:58:55.603Z,10.30
2018-06-06T15:01:22.914Z,9.43
2018-06-06T15:03:50.205Z,9.47
2018-06-06T15:06:17.478Z,10.63
2018-06-06T15:08:44.768Z,10.53
2018-06-06T15:11:12.139Z,9.53
2018-06-06T15:13:39.636Z,9.03
2018-06-06T15:16:06.876Z,10.00
2018-06-06T15:18:34.132Z,10.20
2018-06-06T15:21:01.398Z,10.30
2018-06-06T15:23:28.646Z,12.03
2018-06-06T15:25:55.922Z,10.77
2018-06-06T15:28:23.199Z,10.10
2018-06-06T15:30:50.587Z,9.47
2018-06-06T15:33:17.828Z,9.43
2018-06-06T15:35:45.305Z,10.17
2018-06-06T15:38:12.616Z,9.67
2018-06-06T15:40:39.984Z,12.40
2018-06-06T15:43:07.304Z,9.97
2018-06-06T15:45:34.791Z,10.03
2018-06-06T15:48:02.282Z,10.10
2018-06-06T15:50:29.570Z,10.03
2018-06-06T15:52:56.960Z,9.17
2018-06-06T15:55:24.282Z,9.90
2018-06-06T15:57:51.573Z,10.00
2018-06-06T16:00:18.911Z,9.90
2018-06-06T16:02:46.289Z,8.90
2018-06-06T16:05:13.630Z,10.10
2018-06-06T16:07:44.330Z,9.80
2018-06-06T16:10:12.107Z,10.30
2018-06-06T16:12:39.745Z,10.13
2018-06-06T16:15:07.142Z,11.67
2018-06-06T16:17:34.829Z,9.90
2018-06-06T16:20:02.146Z,9.77
2018-06-06T16:22:29.442Z,12.30
2018-06-06T16:24:56.767Z,12.53
2018-06-06T16:27:24.050Z,10.17
2018-06-06T16:29:51.396Z,10.20
2018-06-06T16:32:18.670Z,8.77
2018-06-06T16:34:45.983Z,10.20
2018-06-06T16:37:13.374Z,9.80
2018-06-06T16:39:40.719Z,10.10
2018-06-06T16:42:08.186Z,14.70
2018-06-06T16:44:35.546Z,9.20
2018-06-06T16:47:02.832Z,8.87
2018-06-06T16:49:30.083Z,10.23
2018-06-06T16:51:57.328Z,9.70
2018-06-06T16:54:24.647Z,9.33
2018-06-06T16:56:52.178Z,10.03
2018-06-06T16:59:19.453Z,9.77
2018-06-06T17:01:46.741Z,9.23
2018-06-06T17:04:14.002Z,10.23
2018-06-06T17:06:41.446Z,10.30
2018-06-06T17:09:08.712Z,9.37
2018-06-06T17:11:35.993Z,10.07
2018-06-06T17:14:03.475Z,9.30
2018-06-06T17:16:30.948Z,10.50
2018-06-06T17:18:58.460Z,8.53
2018-06-06T17:21:25.698Z,9.57
2018-06-06T17:23:52.962Z,9.33
2018-06-06T17:26:20.330Z,9.60
2018-06-06T17:28:47.839Z,9.37
2018-06-06T17:31:15.107Z,9.10
2018-06-06T17:33:42.408Z,8.97
2018-06-06T17:36:09.910Z,9.80
2018-06-06T17:38:37.211Z,9.00
2018-06-06T17:41:04.727Z,8.80
2018-06-06T17:43:32.022Z,9.93
2018-06-06T17:45:59.438Z,10.17
2018-06-06T17:48:26.673Z,8.90
2018-06-06T17:50:54.192Z,10.63
2018-06-06T17:53:21.426Z,9.27
2018-06-06T17:55:48.714Z,9.80
2018-06-06T17:58:16.396Z,9.40
2018-06-06T18:00:43.789Z,9.67
2018-06-06T18:03:11.215Z,11.50
2018-06-06T18:05:38.600Z,11.90
2018-06-06T18:08:05.896Z,10.20
2018-06-06T18:10:33.156Z,9.67
2018-06-06T18:13:00.448Z,11.20
2018-06-06T18:15:27.721Z,9.43
2018-06-06T18:17:55.044Z,9.73
2018-06-06T18:20:22.482Z,10.07
2018-06-06T18:22:49.753Z,8.77
2018-06-06T18:25:17.291Z,9.30
2018-06-06T18:27:44.684Z,9.30
2018-06-06T18:30:12.131Z,8.80
2018-06-06T18:32:39.411Z,9.17
2018-06-06T18:35:06.722Z,9.70
2018-06-06T18:37:34.219Z,11.10
2018-06-06T18:40:01.744Z,10.23
2018-06-06T18:42:29.004Z,9.90
2018-06-06T18:44:56.324Z,10.13
2018-06-06T18:47:23.571Z,9.53
2018-06-06T18:49:51.113Z,10.33
2018-06-06T18:52:18.356Z,9.80
2018-06-06T18:54:45.619Z,8.97
2018-06-06T18:57:13.070Z,9.37
2018-06-06T18:59:40.326Z,9.13
2018-06-06T19:02:07.746Z,11.13
2018-06-06T19:04:35.236Z,9.93
2018-06-06T19:07:02.563Z,10.97
2018-06-06T19:09:30.054Z,9.60
2018-06-06T19:11:57.536Z,10.20
2018-06-06T19:14:25.137Z,9.90
2018-06-06T19:16:52.601Z,12.30
2018-06-06T19:19:20.061Z,9.70
2018-06-06T19:21:47.531Z,10.20
2018-06-06T19:24:15.003Z,10.43
2018-06-06T19:26:42.536Z,10.17
2018-06-06T19:29:09.776Z,9.87
2018-06-06T19:31:37.250Z,10.30
2018-06-06T19:34:04.734Z,10.60
2018-06-06T19:36:32.024Z,9.77
2018-06-06T19:38:59.370Z,10.10
2018-06-06T19:41:26.844Z,10.70
2018-06-06T19:43:54.144Z,10.57
2018-06-06T19:46:21.472Z,10.50
2018-06-06T19:48:48.755Z,10.43
2018-06-06T19:51:16.209Z,15.03
2018-06-06T19:53:43.688Z,10.90
2018-06-06T19:56:11.258Z,10.70
2018-06-06T19:58:38.525Z,11.00
2018-06-06T20:01:05.828Z,10.63
2018-06-06T20:03:33.186Z,11.40
2018-06-06T20:06:00.482Z,10.63
2018-06-06T20:08:27.946Z,10.10
2018-06-06T20:10:55.478Z,11.20
2018-06-06T20:13:22.730Z,10.97
2018-06-06T20:15:50.611Z,12.00
2018-06-06T20:18:18.342Z,11.33
2018-06-06T20:20:45.669Z,11.30
2018-06-06T20:23:13.145Z,11.00
2018-06-06T20:25:40.471Z,12.40
2018-06-06T20:28:07.716Z,11.93
2018-06-06T20:30:35.242Z,12.10
2018-06-06T20:33:02.759Z,12.03
2018-06-06T20:35:30.189Z,13.30
2018-06-06T20:37:57.646Z,11.53
2018-06-06T20:40:25.109Z,11.17
2018-06-06T20:42:52.582Z,11.10
2018-06-06T20:45:20.039Z,10.93
2018-06-06T20:47:48.049Z,11.53
2018-06-06T20:50:15.470Z,11.73
2018-06-06T20:52:42.728Z,10.73
2018-06-06T20:55:10.015Z,11.20
2018-06-06T20:57:37.466Z,11.17
2018-06-06T21:00:05.096Z,10.80
2018-06-06T21:02:32.635Z,11.20
2018-06-06T21:05:00.223Z,10.50
2018-06-06T21:07:27.472Z,10.63
2018-06-06T21:09:54.926Z,11.77
2018-06-06T21:12:22.328Z,13.93
2018-06-06T21:14:49.903Z,13.87
2018-06-06T21:17:17.192Z,10.77
2018-06-06T21:19:44.536Z,11.33
2018-06-06T21:22:11.799Z,18.27
2018-06-06T21:24:39.826Z,14.23
2018-06-06T21:27:07.337Z,10.83
2018-06-06T21:29:34.627Z,11.57
2018-06-06T21:32:01.934Z,11.43
2018-06-06T21:34:29.170Z,13.00
2018-06-06T21:36:56.488Z,10.43
2018-06-06T21:39:23.861Z,12.93
2018-06-06T21:41:51.458Z,12.50
2018-06-06T21:44:18.735Z,11.07
2018-06-06T21:46:45.962Z,10.90
2018-06-06T21:49:13.225Z,12.20
2018-06-06T21:51:40.623Z,11.93
2018-06-06T21:54:07.874Z,10.60
2018-06-06T21:56:35.351Z,12.10
2018-06-06T21:59:02.684Z,10.50
2018-06-06T22:01:30.203Z,11.43
2018-06-06T22:03:57.494Z,12.70
2018-06-06T22:06:25.053Z,11.13
2018-06-06T22:08:52.325Z,12.53
2018-06-06T22:11:19.607Z,13.63
2018-06-06T22:13:47.124Z,11.23
2018-06-06T22:16:14.443Z,11.03
2018-06-06T22:18:41.892Z,12.97
2018-06-06T22:21:09.407Z,10.90
2018-06-06T22:23:36.717Z,10.57
2018-06-06T22:26:04.251Z,13.87
2018-06-06T22:28:31.531Z,13.60
2018-06-06T22:30:59.050Z,12.53
2018-06-06T22:33:26.414Z,11.50
2018-06-06T22:35:53.783Z,11.10
2018-06-06T22:38:21.162Z,11.47
2018-06-06T22:40:48.515Z,11.37
2018-06-06T22:43:16.006Z,11.97
2018-06-06T22:45:43.289Z,14.20
2018-06-06T22:48:10.635Z,11.40
2018-06-06T22:50:38.167Z,13.60
2018-06-06T22:53:05.524Z,11.57
2018-06-06T22:55:33.096Z,12.13
2018-06-06T22:58:00.651Z,12.60
2018-06-06T23:00:28.247Z,12.63
2018-06-06T23:02:55.754Z,11.30
2018-06-06T23:05:23.266Z,12.40
2018-06-06T23:07:50.830Z,13.67
2018-06-06T23:10:18.355Z,12.70
2018-06-06T23:12:45.886Z,13.63
2018-06-06T23:15:13.578Z,12.07
2018-06-06T23:17:41.090Z,11.93
2018-06-06T23:20:08.667Z,12.00
2018-06-06T23:22:35.999Z,11.80
2018-06-06T23:25:03.697Z,12.13
2018-06-06T23:27:31.803Z,13.60
2018-06-06T23:29:59.116Z,12.70
2018-06-06T23:32:26.494Z,12.80
2018-06-06T23:34:53.774Z,15.47
2018-06-06T23:37:21.086Z,12.43
2018-06-06T23:39:48.461Z,13.87
2018-06-06T23:42:15.811Z,14.50
2018-06-06T23:44:43.142Z,14.40
2018-06-06T23:47:10.443Z,14.03
2018-06-06T23:49:37.735Z,15.13
2018-06-06T23:52:05.326Z,13.60
2018-06-06T23:54:32.650Z,13.47
2018-06-06T23:56:59.991Z,18.43
2018-06-06T23:59:27.262Z,15.90
